createdAt,value
2023-04-12T00:01:43.900Z,72.40
2023-04-12T00:04:11.117Z,72.40
2023-04-12T00:06:38.144Z,72.40
2023-04-12T00:09:04.988Z,72.40
2023-04-12T00:11:32.013Z,72.40
2023-04-12T00:13:58.876Z,72.40
2023-04-12T00:16:25.926Z,72.50
2023-04-12T00:18:52.861Z,72.60
2023-04-12T00:21:19.993Z,72.50
2023-04-12T00:23:47.492Z,72.70
2023-04-12T00:26:14.657Z,72.60
2023-04-12T00:28:43.040Z,72.70
2023-04-12T00:31:09.888Z,72.70
2023-04-12T00:33:39.444Z,72.80
2023-04-12T00:36:06.462Z,72.80
2023-04-12T00:38:34.450Z,72.70
2023-04-12T00:41:03.966Z,72.70
2023-04-12T00:43:30.849Z,72.70
2023-04-12T00:45:58.000Z,72.80
2023-04-12T00:48:27.586Z,72.80
2023-04-12T00:50:55.884Z,72.80
2023-04-12T00:53:25.685Z,72.80
2023-04-12T00:55:53.036Z,72.90
2023-04-12T00:58:24.207Z,73.10
2023-04-12T01:00:53.006Z,73.10
2023-04-12T01:03:23.449Z,73.10
2023-04-12T01:05:54.080Z,73.30
2023-04-12T01:08:40.051Z,73.20
2023-04-12T01:11:16.759Z,73.10
2023-04-12T01:14:07.489Z,73.20
2023-04-12T01:16:47.767Z,73.20
2023-04-12T01:19:24.000Z,73.10
2023-04-12T01:22:02.493Z,73.20
2023-04-12T01:24:49.095Z,73.40
2023-04-12T01:27:29.855Z,73.40
2023-04-12T01:29:57.757Z,73.40
2023-04-12T01:32:26.214Z,73.40
2023-04-12T01:34:54.987Z,73.60
2023-04-12T01:37:22.279Z,73.90
2023-04-12T01:39:49.595Z,74.00
2023-04-12T01:42:20.600Z,74.10
2023-04-12T01:44:47.966Z,74.20
2023-04-12T01:47:14.934Z,74.20
2023-04-12T01:50:09.576Z,74.00
2023-04-12T01:52:38.901Z,74.00
2023-04-12T01:55:06.083Z,74.10
2023-04-12T01:57:33.402Z,74.10
2023-04-12T02:00:02.340Z,74.20
2023-04-12T02:02:30.061Z,74.20
2023-04-12T02:05:00.217Z,74.20
2023-04-12T02:07:27.190Z,74.10
2023-04-12T02:09:54.060Z,74.00
2023-04-12T02:12:22.440Z,74.00
2023-04-12T02:14:52.016Z,74.10
2023-04-12T02:17:19.975Z,74.10
2023-04-12T02:19:47.500Z,74.20
2023-04-12T02:22:15.941Z,74.20
2023-04-12T02:24:42.809Z,74.20
2023-04-12T02:27:09.642Z,75.10
2023-04-12T02:29:38.144Z,74.40
2023-04-12T02:32:05.087Z,74.60
2023-04-12T02:34:34.394Z,74.60
2023-04-12T02:37:13.722Z,74.70
2023-04-12T02:39:41.431Z,74.60
2023-04-12T02:42:08.720Z,74.50
2023-04-12T02:44:36.711Z,74.50
2023-04-12T02:47:11.353Z,74.70
2023-04-12T02:49:40.062Z,74.60
2023-04-12T02:52:07.942Z,74.60
2023-04-12T02:54:42.326Z,74.60
2023-04-12T02:57:16.208Z,74.70
2023-04-12T02:59:46.638Z,74.60
2023-04-12T03:02:20.032Z,74.60
2023-04-12T03:04:50.775Z,74.70
2023-04-12T03:07:22.113Z,74.80
2023-04-12T03:09:51.722Z,74.80
2023-04-12T03:12:21.081Z,74.90
2023-04-12T03:15:09.287Z,75.00
2023-04-12T03:17:36.429Z,75.00
2023-04-12T03:20:07.964Z,74.90
2023-04-12T03:22:35.012Z,74.80
2023-04-12T03:25:05.850Z,74.80
2023-04-12T03:27:33.314Z,74.80
2023-04-12T03:30:00.905Z,74.80
2023-04-12T03:32:33.817Z,74.80
2023-04-12T03:35:01.197Z,74.90
2023-04-12T03:37:29.356Z,74.90
2023-04-12T03:39:57.392Z,74.90
2023-04-12T03:42:33.184Z,75.00
2023-04-12T03:45:09.907Z,75.00
2023-04-12T03:47:37.964Z,74.90
2023-04-12T03:50:11.395Z,74.90
2023-04-12T03:52:42.497Z,75.00
2023-04-12T03:55:09.712Z,75.00
2023-04-12T03:57:37.841Z,74.90
2023-04-12T04:00:08.689Z,74.90
2023-04-12T04:02:54.904Z,74.90
2023-04-12T04:05:22.567Z,74.90
2023-04-12T04:07:49.921Z,74.90
2023-04-12T04:10:17.172Z,74.60
2023-04-12T04:12:45.536Z,74.30
2023-04-12T04:15:14.323Z,74.40
2023-04-12T04:17:43.188Z,74.60
2023-04-12T04:20:13.784Z,74.60
2023-04-12T04:22:45.360Z,74.80
2023-04-12T04:25:14.820Z,74.70
2023-04-12T04:27:47.154Z,74.80
2023-04-12T04:30:18.788Z,74.90
2023-04-12T04:32:48.322Z,75.00
2023-04-12T04:35:17.365Z,75.20
2023-04-12T04:38:01.541Z,75.20
2023-04-12T04:40:29.145Z,75.40
2023-04-12T04:42:57.701Z,74.70
2023-04-12T04:45:46.397Z,74.50
2023-04-12T04:48:13.294Z,74.40
2023-04-12T04:50:40.161Z,75.10
2023-04-12T04:53:07.055Z,74.60
2023-04-12T04:55:33.892Z,74.60
2023-04-12T04:58:01.293Z,74.30
2023-04-12T05:00:28.791Z,74.00
2023-04-12T05:02:57.553Z,73.70
2023-04-12T05:05:27.909Z,73.70
2023-04-12T05:08:07.279Z,73.30
2023-04-12T05:10:35.513Z,73.00
2023-04-12T05:13:03.143Z,72.80
2023-04-12T05:15:31.883Z,72.00
2023-04-12T05:17:59.757Z,71.40
2023-04-12T05:20:29.497Z,71.00
2023-04-12T05:22:56.454Z,69.00
2023-04-12T05:25:23.380Z,67.90
2023-04-12T05:27:57.317Z,66.50
2023-04-12T05:30:25.330Z,65.90
2023-04-12T05:32:52.520Z,65.00
2023-04-12T05:35:20.479Z,64.30
2023-04-12T05:37:49.140Z,64.40
2023-04-12T05:40:15.998Z,64.70
2023-04-12T05:42:43.205Z,64.70
2023-04-12T05:45:10.924Z,63.80
2023-04-12T05:47:38.494Z,62.30
2023-04-12T05:50:07.087Z,61.50
2023-04-12T05:52:34.533Z,60.30
2023-04-12T05:55:01.988Z,60.60
2023-04-12T05:57:30.658Z,60.20
2023-04-12T05:59:58.468Z,59.00
2023-04-12T06:02:26.237Z,58.60
2023-04-12T06:04:55.790Z,58.30
2023-04-12T06:07:23.010Z,58.30
2023-04-12T06:09:50.154Z,58.10
2023-04-12T06:12:18.003Z,58.10
2023-04-12T06:14:45.311Z,58.10
2023-04-12T06:17:12.643Z,58.20
2023-04-12T06:19:40.688Z,57.40
2023-04-12T06:22:07.748Z,56.80
2023-04-12T06:24:34.974Z,56.60
2023-04-12T06:27:02.019Z,56.00
2023-04-12T06:29:29.092Z,55.80
2023-04-12T06:31:56.119Z,55.70
2023-04-12T06:34:23.148Z,55.60
2023-04-12T06:36:51.258Z,55.10
2023-04-12T06:39:18.216Z,54.90
2023-04-12T06:41:47.469Z,54.20
2023-04-12T06:44:19.428Z,52.60
2023-04-12T06:46:46.671Z,51.90
2023-04-12T06:49:13.823Z,51.80
2023-04-12T06:51:41.050Z,51.70
2023-04-12T06:54:08.010Z,51.70
2023-04-12T06:56:37.350Z,52.10
2023-04-12T06:59:04.298Z,52.60
2023-04-12T07:01:31.582Z,53.00
2023-04-12T07:03:58.775Z,53.10
2023-04-12T07:06:26.366Z,53.20
2023-04-12T07:08:53.712Z,53.00
2023-04-12T07:11:23.003Z,53.30
2023-04-12T07:13:51.456Z,53.30
2023-04-12T07:16:18.771Z,53.20
2023-04-12T07:18:45.922Z,54.10
2023-04-12T07:21:17.619Z,53.80
2023-04-12T07:23:46.595Z,54.10
2023-04-12T07:26:13.597Z,54.00
2023-04-12T07:28:40.755Z,54.00
2023-04-12T07:31:08.064Z,54.40
2023-04-12T07:33:36.650Z,54.40
2023-04-12T07:36:04.678Z,54.40
2023-04-12T07:38:31.816Z,54.60
2023-04-12T07:40:58.890Z,54.30
2023-04-12T07:43:26.053Z,54.00
2023-04-12T07:45:55.868Z,54.20
2023-04-12T07:48:23.141Z,54.00
2023-04-12T07:50:50.723Z,54.20
2023-04-12T07:53:20.068Z,54.10
2023-04-12T07:55:47.578Z,53.50
2023-04-12T07:58:17.141Z,53.10
2023-04-12T08:00:45.246Z,53.10
2023-04-12T08:03:13.862Z,52.90
2023-04-12T08:05:41.307Z,53.00
2023-04-12T08:08:11.823Z,52.80
2023-04-12T08:10:39.869Z,52.50
2023-04-12T08:13:07.528Z,51.50
2023-04-12T08:15:34.716Z,51.30
2023-04-12T08:18:02.541Z,51.20
2023-04-12T08:20:29.914Z,51.00
2023-04-12T08:22:56.778Z,51.00
2023-04-12T08:25:24.460Z,50.70
2023-04-12T08:27:51.479Z,51.10
2023-04-12T08:30:18.484Z,51.30
2023-04-12T08:32:45.495Z,51.50
2023-04-12T08:35:12.650Z,51.60
2023-04-12T08:37:39.495Z,51.70
2023-04-12T08:40:07.314Z,51.20
2023-04-12T08:42:34.927Z,51.00
2023-04-12T08:45:04.420Z,51.10
2023-04-12T08:47:32.443Z,51.30
2023-04-12T08:50:01.613Z,51.10
2023-04-12T08:52:28.595Z,51.00
2023-04-12T08:54:56.334Z,51.20
2023-04-12T08:57:23.315Z,51.20
2023-04-12T08:59:51.216Z,50.90
2023-04-12T09:02:18.414Z,51.10
2023-04-12T09:04:50.010Z,50.80
2023-04-12T09:07:17.492Z,51.10
2023-04-12T09:09:45.597Z,51.20
2023-04-12T09:12:13.954Z,50.90
2023-04-12T09:14:44.744Z,51.00
2023-04-12T09:17:26.163Z,51.10
2023-04-12T09:19:56.056Z,51.10
2023-04-12T09:22:40.058Z,51.00
2023-04-12T09:25:07.345Z,51.20
2023-04-12T09:27:51.614Z,51.30
2023-04-12T09:30:20.507Z,51.20
2023-04-12T09:32:50.791Z,51.20
2023-04-12T09:35:18.175Z,50.90
2023-04-12T09:37:45.395Z,50.70
2023-04-12T09:40:12.674Z,50.70
2023-04-12T09:42:53.711Z,50.50
2023-04-12T09:45:25.280Z,50.40
2023-04-12T09:47:53.059Z,50.40
2023-04-12T09:50:30.464Z,50.30
2023-04-12T09:52:57.858Z,50.30
2023-04-12T09:55:27.058Z,50.30
2023-04-12T09:57:55.250Z,50.10
2023-04-12T10:00:23.336Z,49.70
2023-04-12T10:02:52.288Z,49.20
2023-04-12T10:05:26.531Z,49.80
2023-04-12T10:07:55.298Z,50.10
2023-04-12T10:10:23.469Z,49.40
2023-04-12T10:12:50.847Z,49.30
2023-04-12T10:15:18.462Z,49.50
2023-04-12T10:17:52.098Z,49.60
2023-04-12T10:20:20.570Z,48.90
2023-04-12T10:22:48.863Z,48.70
2023-04-12T10:25:18.784Z,48.80
2023-04-12T10:27:46.155Z,49.10
2023-04-12T10:30:19.872Z,48.60
2023-04-12T10:32:47.336Z,48.70
2023-04-12T10:35:14.564Z,48.60
2023-04-12T10:38:02.799Z,48.20
2023-04-12T10:40:31.813Z,47.60
2023-04-12T10:43:17.267Z,47.30
2023-04-12T10:45:44.668Z,47.10
2023-04-12T10:48:31.423Z,47.00
2023-04-12T10:51:18.016Z,47.10
2023-04-12T10:53:46.868Z,47.50
2023-04-12T10:56:33.027Z,47.50
2023-04-12T10:59:20.827Z,47.40
2023-04-12T11:02:06.589Z,47.40
2023-04-12T11:04:36.214Z,47.10
2023-04-12T11:07:11.597Z,46.90
2023-04-12T11:09:42.963Z,46.80
2023-04-12T11:12:15.114Z,47.10
2023-04-12T11:14:46.700Z,46.90
2023-04-12T11:17:14.428Z,47.00
2023-04-12T11:19:42.778Z,46.00
2023-04-12T11:22:10.809Z,45.60
2023-04-12T11:24:38.243Z,45.30
2023-04-12T11:27:05.100Z,44.30
2023-04-12T11:29:35.093Z,43.20
2023-04-12T11:32:06.139Z,41.70
2023-04-12T11:34:34.031Z,41.70
2023-04-12T11:37:01.086Z,40.80
2023-04-12T11:39:30.608Z,41.10
2023-04-12T11:41:59.213Z,41.20
2023-04-12T11:44:26.105Z,41.70
2023-04-12T11:46:53.352Z,41.80
2023-04-12T11:49:20.877Z,41.90
2023-04-12T11:51:49.428Z,41.80
2023-04-12T11:54:16.615Z,40.80
2023-04-12T11:56:43.457Z,40.20
2023-04-12T11:59:10.456Z,39.70
2023-04-12T12:01:37.945Z,40.00
2023-04-12T12:04:05.567Z,38.80
2023-04-12T12:06:33.022Z,37.80
2023-04-12T12:09:00.558Z,37.40
2023-04-12T12:11:27.799Z,36.20
2023-04-12T12:13:55.777Z,36.00
2023-04-12T12:16:29.428Z,36.30
2023-04-12T12:18:57.067Z,35.10
2023-04-12T12:21:24.111Z,34.70
2023-04-12T12:23:51.093Z,34.40
2023-04-12T12:26:22.564Z,34.30
2023-04-12T12:28:53.815Z,34.20
2023-04-12T12:31:22.327Z,35.00
2023-04-12T12:33:49.810Z,35.30
2023-04-12T12:36:20.986Z,36.40
2023-04-12T12:38:49.337Z,36.00
2023-04-12T12:41:20.975Z,36.10
2023-04-12T12:43:48.959Z,36.50
2023-04-12T12:46:17.592Z,36.10
2023-04-12T12:48:45.379Z,36.60
2023-04-12T12:51:12.933Z,36.50
2023-04-12T12:53:40.513Z,36.80
2023-04-12T12:56:11.443Z,36.70
2023-04-12T12:58:40.370Z,36.80
2023-04-12T13:01:08.076Z,35.80
2023-04-12T13:03:34.975Z,35.80
2023-04-12T13:06:01.972Z,35.70
2023-04-12T13:08:29.239Z,36.10
2023-04-12T13:10:56.584Z,36.40
2023-04-12T13:13:23.436Z,37.00
2023-04-12T13:15:52.841Z,37.90
2023-04-12T13:18:20.209Z,39.00
2023-04-12T13:20:47.039Z,39.80
2023-04-12T13:23:14.469Z,40.10
2023-04-12T13:25:41.363Z,40.50
2023-04-12T13:28:08.397Z,40.40
2023-04-12T13:30:35.340Z,40.40
2023-04-12T13:33:02.304Z,40.90
2023-04-12T13:35:29.288Z,40.50
2023-04-12T13:37:56.137Z,40.60
2023-04-12T13:40:22.994Z,40.90
2023-04-12T13:42:50.000Z,41.00
2023-04-12T13:45:16.800Z,41.40
2023-04-12T13:47:44.495Z,42.10
2023-04-12T13:50:11.453Z,42.60
2023-04-12T13:52:39.109Z,42.90
2023-04-12T13:55:08.513Z,42.90
2023-04-12T13:57:36.116Z,42.70
2023-04-12T14:00:03.109Z,42.70
2023-04-12T14:02:31.939Z,42.40
2023-04-12T14:04:59.795Z,42.80
2023-04-12T14:07:28.742Z,43.10
2023-04-12T14:09:57.736Z,43.60
2023-04-12T14:12:24.579Z,44.30
2023-04-12T14:14:51.406Z,44.60
2023-04-12T14:17:18.260Z,44.60
2023-04-12T14:19:45.219Z,44.90
2023-04-12T14:22:11.977Z,45.10
2023-04-12T14:24:40.111Z,45.20
2023-04-12T14:27:07.821Z,45.70
2023-04-12T14:29:34.681Z,46.10
2023-04-12T14:32:01.663Z,46.50
2023-04-12T14:34:28.554Z,46.50
2023-04-12T14:36:56.368Z,46.90
2023-04-12T14:39:24.354Z,47.00
2023-04-12T14:41:51.397Z,47.20
2023-04-12T14:44:20.094Z,47.30
2023-04-12T14:46:47.852Z,47.40
2023-04-12T14:49:14.801Z,47.70
2023-04-12T14:51:41.719Z,47.70
2023-04-12T14:54:08.540Z,47.80
2023-04-12T14:56:41.091Z,48.10
2023-04-12T14:59:11.952Z,48.40
2023-04-12T15:01:39.489Z,48.30
2023-04-12T15:06:35.237Z,48.30
2023-04-12T15:09:05.781Z,48.40
2023-04-12T15:11:36.457Z,48.40
2023-04-12T15:14:07.286Z,48.70
2023-04-12T15:16:35.106Z,48.80
2023-04-12T15:19:07.263Z,49.30
2023-04-12T15:21:36.775Z,49.50
2023-04-12T15:24:03.620Z,49.60
2023-04-12T15:26:30.584Z,49.70
2023-04-12T15:28:57.430Z,49.90
2023-04-12T15:31:24.278Z,50.10
2023-04-12T15:33:51.155Z,50.20
2023-04-12T15:36:20.313Z,50.30
2023-04-12T15:38:47.372Z,50.50
2023-04-12T15:41:14.303Z,50.70
2023-04-12T15:43:43.099Z,50.70
2023-04-12T15:46:13.447Z,50.70
2023-04-12T15:48:41.582Z,50.60
2023-04-12T15:51:08.501Z,50.70
2023-04-12T15:53:35.482Z,50.70
2023-04-12T15:56:04.462Z,50.60
2023-04-12T15:58:31.450Z,50.60
2023-04-12T16:00:58.251Z,50.70
2023-04-12T16:03:26.242Z,50.70
2023-04-12T16:05:54.683Z,51.10
2023-04-12T16:08:22.290Z,51.10
2023-04-12T16:10:52.240Z,50.90
2023-04-12T16:13:19.459Z,51.00
2023-04-12T16:15:46.932Z,51.20
2023-04-12T16:18:13.941Z,51.30
2023-04-12T16:20:41.050Z,51.50
2023-04-12T16:23:08.087Z,51.70
2023-04-12T16:25:35.924Z,51.80
2023-04-12T16:28:03.126Z,51.90
2023-04-12T16:30:31.505Z,51.80
2023-04-12T16:32:58.576Z,52.00
2023-04-12T16:35:25.518Z,52.10
2023-04-12T16:37:52.401Z,52.80
2023-04-12T16:40:19.396Z,53.10
2023-04-12T16:42:46.543Z,52.90
2023-04-12T16:45:16.381Z,53.00
2023-04-12T16:47:45.296Z,53.50
2023-04-12T16:50:13.368Z,54.30
2023-04-12T16:52:41.375Z,54.70
2023-04-12T16:55:11.444Z,54.90
2023-04-12T16:57:39.480Z,55.00
2023-04-12T17:00:19.322Z,55.10
2023-04-12T17:02:47.243Z,55.20
2023-04-12T17:05:19.008Z,55.00
2023-04-12T17:07:47.883Z,54.70
2023-04-12T17:10:17.083Z,54.40
2023-04-12T17:12:44.964Z,54.30
2023-04-12T17:15:13.158Z,54.30
2023-04-12T17:17:40.172Z,54.40
2023-04-12T17:20:11.427Z,54.50
2023-04-12T17:22:38.985Z,54.50
2023-04-12T17:25:06.883Z,54.50
2023-04-12T17:27:37.439Z,54.50
2023-04-12T17:30:05.324Z,54.40
2023-04-12T17:32:32.788Z,54.40
2023-04-12T17:34:59.796Z,54.30
2023-04-12T17:37:27.804Z,54.00
2023-04-12T17:39:54.693Z,53.90
2023-04-12T17:42:21.792Z,54.00
2023-04-12T17:44:49.077Z,54.10
2023-04-12T17:47:15.988Z,53.90
2023-04-12T17:49:42.850Z,54.00
2023-04-12T17:52:11.014Z,54.30
2023-04-12T17:54:38.493Z,54.30
2023-04-12T17:57:05.548Z,54.50
2023-04-12T17:59:32.745Z,54.70
2023-04-12T18:02:01.580Z,54.80
2023-04-12T18:04:29.206Z,54.80
2023-04-12T18:06:56.644Z,55.00
2023-04-12T18:09:24.323Z,55.10
2023-04-12T18:11:51.611Z,55.20
2023-04-12T18:14:20.368Z,55.30
2023-04-12T18:16:47.341Z,55.40
2023-04-12T18:19:15.691Z,55.60
2023-04-12T18:21:47.107Z,55.70
2023-04-12T18:24:15.780Z,56.50
2023-04-12T18:26:43.130Z,56.00
2023-04-12T18:29:12.619Z,56.30
2023-04-12T18:31:39.989Z,56.50
2023-04-12T18:34:07.214Z,56.80
2023-04-12T18:36:34.643Z,57.00
2023-04-12T18:39:01.932Z,57.20
2023-04-12T18:41:28.824Z,57.30
2023-04-12T18:43:57.190Z,57.30
2023-04-12T18:46:26.805Z,57.30
2023-04-12T18:48:54.740Z,57.30
2023-04-12T18:51:22.888Z,57.40
2023-04-12T18:53:50.734Z,57.60
2023-04-12T18:56:23.245Z,57.80
2023-04-12T18:58:56.243Z,58.00
2023-04-12T19:01:24.742Z,58.20
2023-04-12T19:03:52.347Z,58.20
2023-04-12T19:06:19.836Z,58.20
2023-04-12T19:08:46.826Z,58.30
2023-04-12T19:11:14.004Z,58.50
2023-04-12T19:13:41.035Z,58.70
2023-04-12T19:16:08.294Z,58.90
2023-04-12T19:18:35.472Z,58.90
2023-04-12T19:21:03.564Z,59.10
2023-04-12T19:23:31.584Z,59.20
2023-04-12T19:26:00.155Z,59.40
2023-04-12T19:28:28.559Z,59.60
2023-04-12T19:30:58.356Z,59.80
2023-04-12T19:33:26.206Z,60.10
2023-04-12T19:35:56.346Z,60.20
2023-04-12T19:38:23.968Z,60.30
2023-04-12T19:40:51.929Z,60.40
2023-04-12T19:43:18.834Z,60.60
2023-04-12T19:45:46.157Z,60.70
2023-04-12T19:48:13.443Z,60.80
2023-04-12T19:50:41.675Z,61.00
2023-04-12T19:53:11.056Z,61.10
2023-04-12T19:55:40.198Z,61.30
2023-04-12T19:58:08.075Z,61.50
2023-04-12T20:00:39.159Z,61.80
2023-04-12T20:03:06.451Z,62.00
2023-04-12T20:05:33.557Z,62.20
2023-04-12T20:08:01.312Z,62.40
2023-04-12T20:10:28.474Z,62.60
2023-04-12T20:12:55.665Z,62.70
2023-04-12T20:15:23.153Z,62.90
2023-04-12T20:17:52.132Z,63.00
2023-04-12T20:20:20.414Z,63.10
2023-04-12T20:22:48.011Z,63.20
2023-04-12T20:25:15.263Z,63.40
2023-04-12T20:27:43.971Z,63.50
2023-04-12T20:30:11.410Z,63.60
2023-04-12T20:32:38.905Z,63.70
2023-04-12T20:35:07.308Z,64.70
2023-04-12T20:37:34.808Z,64.30
2023-04-12T20:40:06.247Z,64.90
2023-04-12T20:42:33.624Z,65.40
2023-04-12T20:45:01.523Z,65.90
2023-04-12T20:47:28.870Z,66.60
2023-04-12T20:49:56.831Z,67.00
2023-04-12T20:52:25.452Z,67.30
2023-04-12T20:54:53.846Z,68.00
2023-04-12T20:57:21.653Z,69.10
2023-04-12T20:59:48.722Z,69.90
2023-04-12T21:02:20.541Z,70.70
2023-04-12T21:04:47.948Z,71.40
2023-04-12T21:07:15.966Z,71.90
2023-04-12T21:09:42.970Z,73.00
2023-04-12T21:12:11.201Z,72.30
2023-04-12T21:14:38.452Z,72.70
2023-04-12T21:17:07.953Z,73.10
2023-04-12T21:19:42.062Z,73.70
2023-04-12T21:22:09.119Z,74.30
2023-04-12T21:24:38.573Z,74.80
2023-04-12T21:27:08.520Z,76.00
2023-04-12T21:29:41.059Z,75.50
2023-04-12T21:32:09.092Z,75.60
2023-04-12T21:34:37.369Z,75.70
2023-04-12T21:37:04.445Z,76.30
2023-04-12T21:39:32.338Z,77.30
2023-04-12T21:41:59.287Z,78.20
2023-04-12T21:44:26.718Z,78.80
2023-04-12T21:46:53.635Z,79.40
2023-04-12T21:49:20.574Z,79.90
2023-04-12T21:51:49.260Z,80.70
2023-04-12T21:54:16.744Z,81.60
2023-04-12T21:56:43.826Z,82.10
2023-04-12T21:59:10.876Z,82.50
2023-04-12T22:01:38.121Z,82.90
2023-04-12T22:04:05.997Z,83.20
2023-04-12T22:06:33.075Z,83.70
2023-04-12T22:09:02.033Z,84.20
2023-04-12T22:11:29.954Z,84.90
2023-04-12T22:13:57.842Z,85.50
2023-04-12T22:16:24.969Z,86.00
2023-04-12T22:18:52.809Z,86.20
2023-04-12T22:21:19.852Z,86.40
2023-04-12T22:23:46.832Z,86.50
2023-04-12T22:26:13.982Z,87.00
2023-04-12T22:28:42.625Z,88.20
2023-04-12T22:31:14.551Z,89.00
2023-04-12T22:33:42.441Z,89.80
2023-04-12T22:36:09.807Z,89.70
2023-04-12T22:38:37.825Z,89.40
2023-04-12T22:41:05.059Z,88.90
2023-04-12T22:43:42.010Z,88.60
2023-04-12T22:46:16.321Z,88.70
2023-04-12T22:48:44.561Z,88.90
2023-04-12T22:51:11.514Z,89.40
2023-04-12T22:53:38.782Z,89.80
2023-04-12T22:56:06.182Z,90.20
2023-04-12T22:58:33.131Z,90.70
2023-04-12T23:01:00.168Z,91.20
2023-04-12T23:03:28.419Z,91.70
2023-04-12T23:05:55.387Z,92.10
2023-04-12T23:08:23.073Z,92.40
2023-04-12T23:10:50.025Z,92.80
2023-04-12T23:13:16.957Z,93.10
2023-04-12T23:15:44.094Z,93.70
2023-04-12T23:18:11.335Z,94.40
2023-04-12T23:20:38.819Z,95.00
2023-04-12T23:23:05.772Z,95.70
2023-04-12T23:25:41.308Z,96.30
2023-04-12T23:28:13.976Z,97.00
2023-04-12T23:30:49.110Z,97.20
2023-04-12T23:33:21.121Z,97.50
2023-04-12T23:35:49.648Z,98.00
2023-04-12T23:38:24.484Z,98.60
2023-04-12T23:40:54.887Z,99.20
2023-04-12T23:43:22.961Z,99.90
2023-04-12T23:45:50.133Z,99.90
2023-04-12T23:48:17.200Z,99.90
2023-04-12T23:50:48.488Z,99.90
2023-04-12T23:53:16.191Z,99.90
2023-04-12T23:55:43.960Z,99.90
2023-04-12T23:58:11.340Z,99.90
